PWSweather.com
Personal Weather Stations
Station Observations
WEBSTRMN
Downtown Webster, Mn Usa, Webster, MN 55088

Downtown Webster, Mn UsaWebster, MN 55088

Lat: 44.53, Lon: -93.35

Elevation: 1099

Station Type: Vantage Pro II

www.WebsterWeatherLIVE.com

High Low Average
Temperature 44.5°F6.9°C 36.6°F2.6°C 40.0°F4.4°C
Dew Point 33.5°F0.8°C 28.9°F-1.7°C 31.4°F-0.3°C
Winds 8.2 mph 13.2 kmh Calm Calm 3.0 mph W4.8 kmh W
Wind Gusts 13.3 mph21.4 kmh -- 5.0 mph8.0 kmh
Humidity 80% 60% 71%
Pressure 29.79 in1008.8 mb 29.63 in1003.4 mb -
Precipitation 0.00 in0.0 mm - -
Hour Temp Dew Point Humidity Winds Wind Gusts Pressure Precip Precip Rate Daily Precip Total
12:00 AM 39.7°F4.3°C 33.4°F0.8°C 78% Calm Calm -- 29.65 in1004.1 mb 0.00 in0.0 mm 0.00 in/hr0.0 mm/hr 0.00 in0.0 mm
12:20 AM 39.3°F4.1°C 32.7°F0.4°C 77% Calm Calm -- 29.64 in1003.7 mb 0.00 in0.0 mm 0.00 in/hr0.0 mm/hr 0.00 in0.0 mm
12:30 AM 39.2°F4.0°C 32.9°F0.5°C 78% Calm Calm -- 29.64 in1003.7 mb 0.00 in0.0 mm 0.00 in/hr0.0 mm/hr 0.00 in0.0 mm
12:40 AM 39.1°F3.9°C 32.5°F0.3°C 77% Calm Calm -- 29.64 in1003.7 mb 0.00 in0.0 mm 0.00 in/hr0.0 mm/hr 0.00 in0.0 mm
12:50 AM 38.8°F3.8°C 32.5°F0.3°C 78% Calm Calm -- 29.63 in1003.4 mb 0.00 in0.0 mm 0.00 in/hr0.0 mm/hr 0.00 in0.0 mm
01:00 AM 38.8°F3.8°C 32.5°F0.3°C 78% 0.2 mph W0.3 kmh W 1.0 mph1.6 kmh 29.63 in1003.4 mb 0.00 in0.0 mm 0.00 in/hr0.0 mm/hr 0.00 in0.0 mm
01:10 AM 39.7°F4.3°C 32.7°F0.4°C 76% 0.9 mph NW1.4 kmh NW 2.0 mph3.2 kmh 29.63 in1003.4 mb 0.00 in0.0 mm 0.00 in/hr0.0 mm/hr 0.00 in0.0 mm
01:20 AM 40.7°F4.8°C 33.0°F0.6°C 74% 2.2 mph NW3.5 kmh NW 3.1 mph5.0 kmh 29.63 in1003.4 mb 0.00 in0.0 mm 0.00 in/hr0.0 mm/hr 0.00 in0.0 mm
01:30 AM 41.0°F5.0°C 32.7°F0.4°C 72% Calm Calm -- 29.64 in1003.7 mb 0.00 in0.0 mm 0.00 in/hr0.0 mm/hr 0.00 in0.0 mm
01:50 AM 40.9°F4.9°C 32.6°F0.3°C 72% Calm Calm -- 29.64 in1003.7 mb 0.00 in0.0 mm 0.00 in/hr0.0 mm/hr 0.00 in0.0 mm
02:00 AM 40.9°F4.9°C 32.6°F0.3°C 72% Calm Calm -- 29.63 in1003.4 mb 0.00 in0.0 mm 0.00 in/hr0.0 mm/hr 0.00 in0.0 mm
02:20 AM 41.3°F5.2°C 32.2°F0.1°C 70% 2.2 mph WNW3.5 kmh WNW 3.1 mph5.0 kmh 29.64 in1003.7 mb 0.00 in0.0 mm 0.00 in/hr0.0 mm/hr 0.00 in0.0 mm
02:30 AM 41.8°F5.4°C 32.4°F0.2°C 69% 1.0 mph WNW1.6 kmh WNW 2.0 mph3.2 kmh 29.63 in1003.4 mb 0.00 in0.0 mm 0.00 in/hr0.0 mm/hr 0.00 in0.0 mm
02:40 AM 42.0°F5.6°C 32.2°F0.1°C 68% 1.5 mph WNW2.4 kmh WNW 2.0 mph3.2 kmh 29.64 in1003.7 mb 0.00 in0.0 mm 0.00 in/hr0.0 mm/hr 0.00 in0.0 mm
02:50 AM 41.8°F5.4°C 32.0°F0.0°C 68% 0.5 mph WNW0.8 kmh WNW 2.0 mph3.2 kmh 29.64 in1003.7 mb 0.00 in0.0 mm 0.00 in/hr0.0 mm/hr 0.00 in0.0 mm
03:10 AM 41.9°F5.5°C 31.7°F-0.2°C 67% 1.3 mph WNW2.1 kmh WNW 2.0 mph3.2 kmh 29.65 in1004.1 mb 0.00 in0.0 mm 0.00 in/hr0.0 mm/hr 0.00 in0.0 mm
03:20 AM 42.1°F5.6°C 31.9°F-0.1°C 67% 0.5 mph WNW0.8 kmh WNW 2.0 mph3.2 kmh 29.65 in1004.1 mb 0.00 in0.0 mm 0.00 in/hr0.0 mm/hr 0.00 in0.0 mm
03:30 AM 42.2°F5.7°C 31.6°F-0.2°C 66% 2.8 mph WNW4.5 kmh WNW 5.1 mph8.2 kmh 29.65 in1004.1 mb 0.00 in0.0 mm 0.00 in/hr0.0 mm/hr 0.00 in0.0 mm
03:40 AM 41.9°F5.5°C 31.7°F-0.2°C 67% 1.0 mph NW1.6 kmh NW 2.0 mph3.2 kmh 29.66 in1004.4 mb 0.00 in0.0 mm 0.00 in/hr0.0 mm/hr 0.00 in0.0 mm
03:50 AM 41.6°F5.3°C 31.4°F-0.3°C 67% 0.6 mph WNW1.0 kmh WNW 1.0 mph1.6 kmh 29.65 in1004.1 mb 0.00 in0.0 mm 0.00 in/hr0.0 mm/hr 0.00 in0.0 mm
04:00 AM 41.5°F5.3°C 31.4°F-0.3°C 67% 1.8 mph WNW2.9 kmh WNW 3.1 mph5.0 kmh 29.65 in1004.1 mb 0.00 in0.0 mm 0.00 in/hr0.0 mm/hr 0.00 in0.0 mm
04:10 AM 41.6°F5.3°C 31.4°F-0.3°C 67% 2.7 mph WNW4.3 kmh WNW 3.1 mph5.0 kmh 29.65 in1004.1 mb 0.00 in0.0 mm 0.00 in/hr0.0 mm/hr 0.00 in0.0 mm
04:20 AM 41.8°F5.4°C 31.6°F-0.2°C 67% 2.1 mph WNW3.4 kmh WNW 4.1 mph6.6 kmh 29.65 in1004.1 mb 0.00 in0.0 mm 0.00 in/hr0.0 mm/hr 0.00 in0.0 mm
04:40 AM 41.9°F5.5°C 31.4°F-0.3°C 66% 2.9 mph WNW4.7 kmh WNW 6.1 mph9.8 kmh 29.66 in1004.4 mb 0.00 in0.0 mm 0.00 in/hr0.0 mm/hr 0.00 in0.0 mm
04:50 AM 41.6°F5.3°C 31.5°F-0.3°C 67% 3.6 mph WNW5.8 kmh WNW 5.1 mph8.2 kmh 29.65 in1004.1 mb 0.00 in0.0 mm 0.00 in/hr0.0 mm/hr 0.00 in0.0 mm
05:00 AM 41.2°F5.1°C 31.4°F-0.3°C 68% 2.5 mph WNW4.0 kmh WNW 4.1 mph6.6 kmh 29.66 in1004.4 mb 0.00 in0.0 mm 0.00 in/hr0.0 mm/hr 0.00 in0.0 mm
05:10 AM 41.0°F5.0°C 31.2°F-0.4°C 68% 4.1 mph WNW6.6 kmh WNW 6.1 mph9.8 kmh 29.66 in1004.4 mb 0.00 in0.0 mm 0.00 in/hr0.0 mm/hr 0.00 in0.0 mm
05:20 AM 40.7°F4.8°C 31.3°F-0.4°C 69% 4.0 mph WNW6.4 kmh WNW 5.1 mph8.2 kmh 29.66 in1004.4 mb 0.00 in0.0 mm 0.00 in/hr0.0 mm/hr 0.00 in0.0 mm
05:30 AM 40.6°F4.8°C 31.2°F-0.4°C 69% 4.1 mph W6.6 kmh W 6.1 mph9.8 kmh 29.66 in1004.4 mb 0.00 in0.0 mm 0.00 in/hr0.0 mm/hr 0.00 in0.0 mm
06:00 AM 39.8°F4.3°C 31.2°F-0.4°C 71% 2.9 mph WNW4.7 kmh WNW 5.1 mph8.2 kmh 29.67 in1004.7 mb 0.00 in0.0 mm 0.00 in/hr0.0 mm/hr 0.00 in0.0 mm
06:10 AM 39.6°F4.2°C 31.3°F-0.4°C 72% 2.7 mph NW4.3 kmh NW 5.1 mph8.2 kmh 29.67 in1004.7 mb 0.00 in0.0 mm 0.00 in/hr0.0 mm/hr 0.00 in0.0 mm
06:20 AM 39.4°F4.1°C 31.5°F-0.3°C 73% 3.4 mph NW5.5 kmh NW 6.1 mph9.8 kmh 29.67 in1004.7 mb 0.00 in0.0 mm 0.00 in/hr0.0 mm/hr 0.00 in0.0 mm
06:30 AM 39.1°F3.9°C 31.5°F-0.3°C 74% 2.9 mph W4.7 kmh W 6.1 mph9.8 kmh 29.68 in1005.1 mb 0.00 in0.0 mm 0.00 in/hr0.0 mm/hr 0.00 in0.0 mm
06:40 AM 38.9°F3.8°C 31.3°F-0.4°C 74% 1.9 mph WNW3.1 kmh WNW 5.1 mph8.2 kmh 29.68 in1005.1 mb 0.00 in0.0 mm 0.00 in/hr0.0 mm/hr 0.00 in0.0 mm
06:50 AM 38.8°F3.8°C 31.6°F-0.2°C 75% 2.6 mph WNW4.2 kmh WNW 4.1 mph6.6 kmh 29.69 in1005.4 mb 0.00 in0.0 mm 0.00 in/hr0.0 mm/hr 0.00 in0.0 mm
07:00 AM 38.8°F3.8°C 31.6°F-0.2°C 75% 0.8 mph NW1.3 kmh NW 3.1 mph5.0 kmh 29.69 in1005.4 mb 0.00 in0.0 mm 0.00 in/hr0.0 mm/hr 0.00 in0.0 mm
07:10 AM 38.6°F3.7°C 31.4°F-0.3°C 75% 0.5 mph NW0.8 kmh NW 2.0 mph3.2 kmh 29.69 in1005.4 mb 0.00 in0.0 mm 0.00 in/hr0.0 mm/hr 0.00 in0.0 mm
07:20 AM 38.5°F3.6°C 31.6°F-0.2°C 76% Calm Calm -- 29.69 in1005.4 mb 0.00 in0.0 mm 0.00 in/hr0.0 mm/hr 0.00 in0.0 mm
07:30 AM 38.3°F3.5°C 32.4°F0.2°C 79% 0.1 mph WNW0.2 kmh WNW -- 29.70 in1005.8 mb 0.00 in0.0 mm 0.00 in/hr0.0 mm/hr 0.00 in0.0 mm
07:40 AM 38.0°F3.3°C 31.1°F-0.5°C 76% 0.3 mph WNW0.5 kmh WNW 2.0 mph3.2 kmh 29.70 in1005.8 mb 0.00 in0.0 mm 0.00 in/hr0.0 mm/hr 0.00 in0.0 mm
07:50 AM 37.7°F3.2°C 31.2°F-0.4°C 77% Calm Calm -- 29.70 in1005.8 mb 0.00 in0.0 mm 0.00 in/hr0.0 mm/hr 0.00 in0.0 mm
08:10 AM 36.9°F2.7°C 30.7°F-0.7°C 78% Calm Calm 1.0 mph1.6 kmh 29.70 in1005.8 mb 0.00 in0.0 mm 0.00 in/hr0.0 mm/hr 0.00 in0.0 mm
08:20 AM 36.7°F2.6°C 30.8°F-0.7°C 79% 1.8 mph WNW2.9 kmh WNW 4.1 mph6.6 kmh 29.71 in1006.1 mb 0.00 in0.0 mm 0.00 in/hr0.0 mm/hr 0.00 in0.0 mm
08:30 AM 37.0°F2.8°C 31.1°F-0.5°C 79% 0.9 mph W1.4 kmh W 2.0 mph3.2 kmh 29.71 in1006.1 mb 0.00 in0.0 mm 0.00 in/hr0.0 mm/hr 0.00 in0.0 mm
08:40 AM 37.0°F2.8°C 31.1°F-0.5°C 79% 0.1 mph WSW0.2 kmh WSW 1.0 mph1.6 kmh 29.71 in1006.1 mb 0.00 in0.0 mm 0.00 in/hr0.0 mm/hr 0.00 in0.0 mm
08:50 AM 37.0°F2.8°C 31.0°F-0.6°C 79% 0.4 mph W0.6 kmh W 3.1 mph5.0 kmh 29.71 in1006.1 mb 0.00 in0.0 mm 0.00 in/hr0.0 mm/hr 0.00 in0.0 mm
09:00 AM 36.9°F2.7°C 31.0°F-0.6°C 79% 0.7 mph WNW1.1 kmh WNW 5.1 mph8.2 kmh 29.71 in1006.1 mb 0.00 in0.0 mm 0.00 in/hr0.0 mm/hr 0.00 in0.0 mm
09:10 AM 37.1°F2.8°C 31.2°F-0.4°C 79% 1.7 mph WNW2.7 kmh WNW 2.0 mph3.2 kmh 29.71 in1006.1 mb 0.00 in0.0 mm 0.00 in/hr0.0 mm/hr 0.00 in0.0 mm
09:20 AM 37.1°F2.8°C 31.2°F-0.4°C 79% 0.1 mph WNW0.2 kmh WNW 1.0 mph1.6 kmh 29.71 in1006.1 mb 0.00 in0.0 mm 0.00 in/hr0.0 mm/hr 0.00 in0.0 mm
09:30 AM 36.8°F2.7°C 30.9°F-0.6°C 79% Calm Calm -- 29.72 in1006.4 mb 0.00 in0.0 mm 0.00 in/hr0.0 mm/hr 0.00 in0.0 mm
09:50 AM 36.6°F2.6°C 31.0°F-0.6°C 80% 0.3 mph WNW0.5 kmh WNW 1.0 mph1.6 kmh 29.73 in1006.8 mb 0.00 in0.0 mm 0.00 in/hr0.0 mm/hr 0.00 in0.0 mm
10:00 AM 36.7°F2.6°C 31.1°F-0.5°C 80% 2.8 mph W4.5 kmh W 4.1 mph6.6 kmh 29.73 in1006.8 mb 0.00 in0.0 mm 0.00 in/hr0.0 mm/hr 0.00 in0.0 mm
10:10 AM 36.9°F2.7°C 31.3°F-0.4°C 80% 0.9 mph W1.4 kmh W -- 29.74 in1007.1 mb 0.00 in0.0 mm 0.00 in/hr0.0 mm/hr 0.00 in0.0 mm
10:20 AM 37.0°F2.8°C 31.4°F-0.3°C 80% 2.4 mph WSW3.9 kmh WSW 4.1 mph6.6 kmh 29.75 in1007.5 mb 0.00 in0.0 mm 0.00 in/hr0.0 mm/hr 0.00 in0.0 mm
10:30 AM 37.4°F3.0°C 31.5°F-0.3°C 79% 1.0 mph W1.6 kmh W 2.0 mph3.2 kmh 29.75 in1007.5 mb 0.00 in0.0 mm 0.00 in/hr0.0 mm/hr 0.00 in0.0 mm
10:40 AM 37.7°F3.2°C 31.5°F-0.3°C 78% 0.4 mph NNW0.6 kmh NNW 1.0 mph1.6 kmh 29.75 in1007.5 mb 0.00 in0.0 mm 0.00 in/hr0.0 mm/hr 0.00 in0.0 mm
10:50 AM 38.0°F3.3°C 31.7°F-0.2°C 78% 3.4 mph WSW5.5 kmh WSW 5.1 mph8.2 kmh 29.76 in1007.8 mb 0.00 in0.0 mm 0.00 in/hr0.0 mm/hr 0.00 in0.0 mm
11:00 AM 38.2°F3.4°C 31.6°F-0.2°C 77% 2.3 mph W3.7 kmh W 3.1 mph5.0 kmh 29.76 in1007.8 mb 0.00 in0.0 mm 0.00 in/hr0.0 mm/hr 0.00 in0.0 mm
11:10 AM 38.3°F3.5°C 31.7°F-0.2°C 77% 2.8 mph W4.5 kmh W 3.1 mph5.0 kmh 29.77 in1008.1 mb 0.00 in0.0 mm 0.00 in/hr0.0 mm/hr 0.00 in0.0 mm
11:20 AM 38.6°F3.7°C 31.7°F-0.2°C 76% 2.3 mph WSW3.7 kmh WSW 4.1 mph6.6 kmh 29.77 in1008.1 mb 0.00 in0.0 mm 0.00 in/hr0.0 mm/hr 0.00 in0.0 mm
11:30 AM 38.6°F3.7°C 31.7°F-0.2°C 76% 2.4 mph W3.9 kmh W 3.1 mph5.0 kmh 29.77 in1008.1 mb 0.00 in0.0 mm 0.00 in/hr0.0 mm/hr 0.00 in0.0 mm
11:40 AM 38.5°F3.6°C 31.3°F-0.4°C 75% 3.3 mph W5.3 kmh W 3.1 mph5.0 kmh 29.77 in1008.1 mb 0.00 in0.0 mm 0.00 in/hr0.0 mm/hr 0.00 in0.0 mm
11:50 AM 38.3°F3.5°C 31.4°F-0.3°C 76% 2.3 mph WSW3.7 kmh WSW 4.1 mph6.6 kmh 29.77 in1008.1 mb 0.00 in0.0 mm 0.00 in/hr0.0 mm/hr 0.00 in0.0 mm
12:00 PM 38.2°F3.4°C 31.3°F-0.4°C 76% 3.4 mph WSW5.5 kmh WSW 7.1 mph11.4 kmh 29.77 in1008.1 mb 0.00 in0.0 mm 0.00 in/hr0.0 mm/hr 0.00 in0.0 mm
12:10 PM 38.2°F3.4°C 31.3°F-0.4°C 76% 3.3 mph W5.3 kmh W 5.1 mph8.2 kmh 29.77 in1008.1 mb 0.00 in0.0 mm 0.00 in/hr0.0 mm/hr 0.00 in0.0 mm
12:20 PM 38.2°F3.4°C 31.3°F-0.4°C 76% 3.3 mph WSW5.3 kmh WSW 4.1 mph6.6 kmh 29.77 in1008.1 mb 0.00 in0.0 mm 0.00 in/hr0.0 mm/hr 0.00 in0.0 mm
12:30 PM 38.3°F3.5°C 31.1°F-0.5°C 75% 3.5 mph WSW5.6 kmh WSW 5.1 mph8.2 kmh 29.77 in1008.1 mb 0.00 in0.0 mm 0.00 in/hr0.0 mm/hr 0.00 in0.0 mm
12:50 PM 39.1°F3.9°C 31.2°F-0.4°C 73% 5.0 mph WSW8.0 kmh WSW 7.1 mph11.4 kmh 29.76 in1007.8 mb 0.00 in0.0 mm 0.00 in/hr0.0 mm/hr 0.00 in0.0 mm
01:00 PM 39.2°F4.0°C 31.6°F-0.2°C 74% 4.2 mph W6.8 kmh W 7.1 mph11.4 kmh 29.76 in1007.8 mb 0.00 in0.0 mm 0.00 in/hr0.0 mm/hr 0.00 in0.0 mm
01:10 PM 39.3°F4.1°C 31.4°F-0.3°C 73% 5.0 mph WSW8.0 kmh WSW 7.1 mph11.4 kmh 29.75 in1007.5 mb 0.00 in0.0 mm 0.00 in/hr0.0 mm/hr 0.00 in0.0 mm
01:20 PM 39.6°F4.2°C 31.7°F-0.2°C 73% 5.7 mph WSW9.2 kmh WSW 10.2 mph16.4 kmh 29.75 in1007.5 mb 0.00 in0.0 mm 0.00 in/hr0.0 mm/hr 0.00 in0.0 mm
01:30 PM 40.7°F4.8°C 31.3°F-0.4°C 69% 6.8 mph WSW10.9 kmh WSW 13.3 mph21.4 kmh 29.75 in1007.5 mb 0.00 in0.0 mm 0.00 in/hr0.0 mm/hr 0.00 in0.0 mm
01:40 PM 41.1°F5.1°C 31.7°F-0.2°C 69% 5.2 mph NW8.4 kmh NW 13.3 mph21.4 kmh 29.75 in1007.5 mb 0.00 in0.0 mm 0.00 in/hr0.0 mm/hr 0.00 in0.0 mm
01:50 PM 41.4°F5.2°C 31.3°F-0.4°C 67% 8.2 mph W13.2 kmh W 11.2 mph18.0 kmh 29.74 in1007.1 mb 0.00 in0.0 mm 0.00 in/hr0.0 mm/hr 0.00 in0.0 mm
02:00 PM 41.4°F5.2°C 31.6°F-0.2°C 68% 5.3 mph WSW8.5 kmh WSW 10.2 mph16.4 kmh 29.74 in1007.1 mb 0.00 in0.0 mm 0.00 in/hr0.0 mm/hr 0.00 in0.0 mm
02:10 PM 41.8°F5.4°C 31.6°F-0.2°C 67% 6.3 mph NW10.1 kmh NW 9.2 mph14.8 kmh 29.74 in1007.1 mb 0.00 in0.0 mm 0.00 in/hr0.0 mm/hr 0.00 in0.0 mm
02:20 PM 42.0°F5.6°C 32.2°F0.1°C 68% 3.8 mph WSW6.1 kmh WSW 6.1 mph9.8 kmh 29.74 in1007.1 mb 0.00 in0.0 mm 0.00 in/hr0.0 mm/hr 0.00 in0.0 mm
02:40 PM 42.5°F5.8°C 31.6°F-0.2°C 65% 5.6 mph WSW9.0 kmh WSW 7.1 mph11.4 kmh 29.74 in1007.1 mb 0.00 in0.0 mm 0.00 in/hr0.0 mm/hr 0.00 in0.0 mm
02:50 PM 43.1°F6.2°C 32.5°F0.3°C 66% 5.3 mph W8.5 kmh W 9.2 mph14.8 kmh 29.75 in1007.5 mb 0.00 in0.0 mm 0.00 in/hr0.0 mm/hr 0.00 in0.0 mm
03:00 PM 43.3°F6.3°C 31.9°F-0.1°C 64% 6.2 mph W10.0 kmh W 13.3 mph21.4 kmh 29.75 in1007.5 mb 0.00 in0.0 mm 0.00 in/hr0.0 mm/hr 0.00 in0.0 mm
03:20 PM 43.7°F6.5°C 32.3°F0.2°C 64% 7.3 mph W11.7 kmh W 13.3 mph21.4 kmh 29.75 in1007.5 mb 0.00 in0.0 mm 0.00 in/hr0.0 mm/hr 0.00 in0.0 mm
03:30 PM 44.1°F6.7°C 33.5°F0.8°C 66% 3.2 mph W5.1 kmh W 6.1 mph9.8 kmh 29.76 in1007.8 mb 0.00 in0.0 mm 0.00 in/hr0.0 mm/hr 0.00 in0.0 mm
03:40 PM 44.4°F6.9°C 32.6°F0.3°C 63% 4.4 mph WSW7.1 kmh WSW 7.1 mph11.4 kmh 29.76 in1007.8 mb 0.00 in0.0 mm 0.00 in/hr0.0 mm/hr 0.00 in0.0 mm
03:50 PM 44.5°F6.9°C 31.9°F-0.1°C 61% 3.9 mph WSW6.3 kmh WSW 12.2 mph19.6 kmh 29.76 in1007.8 mb 0.00 in0.0 mm 0.00 in/hr0.0 mm/hr 0.00 in0.0 mm
04:00 PM 44.3°F6.8°C 31.3°F-0.4°C 60% 4.8 mph WNW7.7 kmh WNW 10.2 mph16.4 kmh 29.76 in1007.8 mb 0.00 in0.0 mm 0.00 in/hr0.0 mm/hr 0.00 in0.0 mm
04:20 PM 43.9°F6.6°C 31.3°F-0.4°C 61% 5.1 mph W8.2 kmh W 6.1 mph9.8 kmh 29.77 in1008.1 mb 0.00 in0.0 mm 0.00 in/hr0.0 mm/hr 0.00 in0.0 mm
04:30 PM 43.7°F6.5°C 31.5°F-0.3°C 62% 4.8 mph W7.7 kmh W 7.1 mph11.4 kmh 29.77 in1008.1 mb 0.00 in0.0 mm 0.00 in/hr0.0 mm/hr 0.00 in0.0 mm
04:40 PM 43.4°F6.3°C 31.2°F-0.4°C 62% 4.8 mph WNW7.7 kmh WNW 9.2 mph14.8 kmh 29.78 in1008.5 mb 0.00 in0.0 mm 0.00 in/hr0.0 mm/hr 0.00 in0.0 mm
04:50 PM 43.1°F6.2°C 31.3°F-0.4°C 63% 3.6 mph W5.8 kmh W 6.1 mph9.8 kmh 29.78 in1008.5 mb 0.00 in0.0 mm 0.00 in/hr0.0 mm/hr 0.00 in0.0 mm
05:00 PM 42.7°F5.9°C 31.0°F-0.6°C 63% 2.5 mph W4.0 kmh W 6.1 mph9.8 kmh 29.78 in1008.5 mb 0.00 in0.0 mm 0.00 in/hr0.0 mm/hr 0.00 in0.0 mm
05:10 PM 42.2°F5.7°C 30.5°F-0.8°C 63% 3.3 mph W5.3 kmh W 5.1 mph8.2 kmh 29.78 in1008.5 mb 0.00 in0.0 mm 0.00 in/hr0.0 mm/hr 0.00 in0.0 mm
05:20 PM 41.6°F5.3°C 30.3°F-0.9°C 64% 4.4 mph WSW7.1 kmh WSW 7.1 mph11.4 kmh 29.78 in1008.5 mb 0.00 in0.0 mm 0.00 in/hr0.0 mm/hr 0.00 in0.0 mm
05:40 PM 40.7°F4.8°C 30.2°F-1.0°C 66% 2.3 mph WSW3.7 kmh WSW 5.1 mph8.2 kmh 29.79 in1008.8 mb 0.00 in0.0 mm 0.00 in/hr0.0 mm/hr 0.00 in0.0 mm
05:50 PM 39.9°F4.4°C 29.9°F-1.2°C 67% 1.5 mph WSW2.4 kmh WSW 3.1 mph5.0 kmh 29.78 in1008.5 mb 0.00 in0.0 mm 0.00 in/hr0.0 mm/hr 0.00 in0.0 mm
06:00 PM 39.2°F4.0°C 29.5°F-1.4°C 68% 1.8 mph WSW2.9 kmh WSW 3.1 mph5.0 kmh 29.78 in1008.5 mb 0.00 in0.0 mm 0.00 in/hr0.0 mm/hr 0.00 in0.0 mm
06:10 PM 38.6°F3.7°C 29.3°F-1.5°C 69% 0.7 mph WSW1.1 kmh WSW 2.0 mph3.2 kmh 29.78 in1008.5 mb 0.00 in0.0 mm 0.00 in/hr0.0 mm/hr 0.00 in0.0 mm
06:20 PM 38.2°F3.4°C 29.3°F-1.5°C 70% 1.1 mph WSW1.8 kmh WSW 3.1 mph5.0 kmh 29.79 in1008.8 mb 0.00 in0.0 mm 0.00 in/hr0.0 mm/hr 0.00 in0.0 mm
06:30 PM 37.5°F3.1°C 28.9°F-1.7°C 71% 2.6 mph SW4.2 kmh SW 3.1 mph5.0 kmh 29.79 in1008.8 mb 0.00 in0.0 mm 0.00 in/hr0.0 mm/hr 0.00 in0.0 mm
06:40 PM 37.4°F3.0°C 28.9°F-1.7°C 71% 2.3 mph WSW3.7 kmh WSW 4.1 mph6.6 kmh 29.79 in1008.8 mb 0.00 in0.0 mm 0.00 in/hr0.0 mm/hr 0.00 in0.0 mm
06:50 PM 38.3°F3.5°C 29.0°F-1.7°C 69% 3.8 mph WSW6.1 kmh WSW 5.1 mph8.2 kmh 29.80 in1009.1 mb 0.00 in0.0 mm 0.00 in/hr0.0 mm/hr 0.00 in0.0 mm
07:00 PM 38.8°F3.8°C 29.1°F-1.6°C 68% 4.6 mph W7.4 kmh W 7.1 mph11.4 kmh 29.80 in1009.1 mb 0.00 in0.0 mm 0.00 in/hr0.0 mm/hr 0.00 in0.0 mm
07:10 PM 38.9°F3.8°C 28.9°F-1.7°C 67% 5.4 mph W8.7 kmh W 7.1 mph11.4 kmh 29.80 in1009.1 mb 0.00 in0.0 mm 0.00 in/hr0.0 mm/hr 0.00 in0.0 mm
07:20 PM 38.8°F3.8°C 28.4°F-2.0°C 66% 5.1 mph WNW8.2 kmh WNW 7.1 mph11.4 kmh 29.80 in1009.1 mb 0.00 in0.0 mm 0.00 in/hr0.0 mm/hr 0.00 in0.0 mm
07:30 PM 38.7°F3.7°C 27.6°F-2.4°C 64% 3.6 mph WSW5.8 kmh WSW 5.1 mph8.2 kmh 29.80 in1009.1 mb 0.00 in0.0 mm 0.00 in/hr0.0 mm/hr 0.00 in0.0 mm
07:40 PM 38.5°F3.6°C 27.0°F-2.8°C 63% 3.5 mph WSW5.6 kmh WSW 5.1 mph8.2 kmh 29.80 in1009.1 mb 0.00 in0.0 mm 0.00 in/hr0.0 mm/hr 0.00 in0.0 mm
07:50 PM 38.7°F3.7°C 26.3°F-3.2°C 61% 4.5 mph WSW7.2 kmh WSW 6.1 mph9.8 kmh 29.80 in1009.1 mb 0.00 in0.0 mm 0.00 in/hr0.0 mm/hr 0.00 in0.0 mm
08:00 PM 38.6°F3.7°C 26.3°F-3.2°C 61% 3.8 mph W6.1 kmh W 7.1 mph11.4 kmh 29.80 in1009.1 mb 0.00 in0.0 mm 0.00 in/hr0.0 mm/hr 0.00 in0.0 mm
08:10 PM 38.5°F3.6°C 26.2°F-3.2°C 61% 3.3 mph W5.3 kmh W 6.1 mph9.8 kmh 29.80 in1009.1 mb 0.00 in0.0 mm 0.00 in/hr0.0 mm/hr 0.00 in0.0 mm
08:20 PM 38.3°F3.5°C 26.4°F-3.1°C 62% 2.8 mph W4.5 kmh W 6.1 mph9.8 kmh 29.81 in1009.5 mb 0.00 in0.0 mm 0.00 in/hr0.0 mm/hr 0.00 in0.0 mm
08:30 PM 38.8°F3.8°C 26.1°F-3.3°C 60% 4.7 mph WNW7.6 kmh WNW 9.2 mph14.8 kmh 29.81 in1009.5 mb 0.00 in0.0 mm 0.00 in/hr0.0 mm/hr 0.00 in0.0 mm
08:40 PM 39.5°F4.2°C 26.8°F-2.9°C 60% 5.6 mph W9.0 kmh W 9.2 mph14.8 kmh 29.81 in1009.5 mb 0.00 in0.0 mm 0.00 in/hr0.0 mm/hr 0.00 in0.0 mm
08:50 PM 39.5°F4.2°C 26.8°F-2.9°C 60% 4.8 mph WSW7.7 kmh WSW 14.3 mph23.0 kmh 29.81 in1009.5 mb 0.00 in0.0 mm 0.00 in/hr0.0 mm/hr 0.00 in0.0 mm
09:10 PM 39.5°F4.2°C 27.5°F-2.5°C 62% 4.0 mph WSW6.4 kmh WSW 8.2 mph13.2 kmh 29.82 in1009.8 mb 0.00 in0.0 mm 0.00 in/hr0.0 mm/hr 0.00 in0.0 mm
09:20 PM 39.4°F4.1°C 27.5°F-2.5°C 62% 6.0 mph W9.7 kmh W 9.2 mph14.8 kmh 29.82 in1009.8 mb 0.00 in0.0 mm 0.00 in/hr0.0 mm/hr 0.00 in0.0 mm
09:30 PM 39.2°F4.0°C 27.3°F-2.6°C 62% 4.3 mph WNW6.9 kmh WNW 5.1 mph8.2 kmh 29.82 in1009.8 mb 0.00 in0.0 mm 0.00 in/hr0.0 mm/hr 0.00 in0.0 mm
09:40 PM 39.0°F3.9°C 27.4°F-2.6°C 63% 4.2 mph WNW6.8 kmh WNW 6.1 mph9.8 kmh 29.82 in1009.8 mb 0.00 in0.0 mm 0.00 in/hr0.0 mm/hr 0.00 in0.0 mm
09:50 PM 38.6°F3.7°C 27.5°F-2.5°C 64% 4.9 mph WSW7.9 kmh WSW 7.1 mph11.4 kmh 29.82 in1009.8 mb 0.00 in0.0 mm 0.00 in/hr0.0 mm/hr 0.00 in0.0 mm
10:00 PM 38.4°F3.6°C 28.0°F-2.2°C 66% 3.4 mph WNW5.5 kmh WNW 4.1 mph6.6 kmh 29.83 in1010.2 mb 0.00 in0.0 mm 0.00 in/hr0.0 mm/hr 0.00 in0.0 mm
10:10 PM 38.0°F3.3°C 28.0°F-2.2°C 67% 4.0 mph WNW6.4 kmh WNW 10.2 mph16.4 kmh 29.83 in1010.2 mb 0.00 in0.0 mm 0.00 in/hr0.0 mm/hr 0.00 in0.0 mm
10:20 PM 37.6°F3.1°C 28.0°F-2.2°C 68% 5.2 mph W8.4 kmh W 11.2 mph18.0 kmh 29.83 in1010.2 mb 0.00 in0.0 mm 0.00 in/hr0.0 mm/hr 0.00 in0.0 mm
10:30 PM 37.2°F2.9°C 27.9°F-2.3°C 69% 3.1 mph WSW5.0 kmh WSW 4.1 mph6.6 kmh 29.84 in1010.5 mb 0.00 in0.0 mm 0.00 in/hr0.0 mm/hr 0.00 in0.0 mm
10:40 PM 36.8°F2.7°C 28.0°F-2.2°C 70% 2.8 mph NW4.5 kmh NW 4.1 mph6.6 kmh 29.84 in1010.5 mb 0.00 in0.0 mm 0.00 in/hr0.0 mm/hr 0.00 in0.0 mm
10:50 PM 36.4°F2.4°C 28.2°F-2.1°C 72% 3.8 mph NW6.1 kmh NW 7.1 mph11.4 kmh 29.84 in1010.5 mb 0.00 in0.0 mm 0.00 in/hr0.0 mm/hr 0.00 in0.0 mm
11:00 PM 36.4°F2.4°C 28.2°F-2.1°C 72% 5.6 mph WNW9.0 kmh WNW 11.2 mph18.0 kmh 29.84 in1010.5 mb 0.00 in0.0 mm 0.00 in/hr0.0 mm/hr 0.00 in0.0 mm
11:10 PM 36.3°F2.4°C 28.1°F-2.2°C 72% 5.5 mph WNW8.9 kmh WNW 10.2 mph16.4 kmh 29.84 in1010.5 mb 0.00 in0.0 mm 0.00 in/hr0.0 mm/hr 0.00 in0.0 mm
11:20 PM 36.1°F2.3°C 28.3°F-2.1°C 73% 4.1 mph W6.6 kmh W 6.1 mph9.8 kmh 29.85 in1010.8 mb 0.00 in0.0 mm 0.00 in/hr0.0 mm/hr 0.00 in0.0 mm
11:30 PM 35.7°F2.1°C 28.2°F-2.1°C 74% 4.2 mph WNW6.8 kmh WNW 12.2 mph19.6 kmh 29.85 in1010.8 mb 0.00 in0.0 mm 0.00 in/hr0.0 mm/hr 0.00 in0.0 mm
11:40 PM 35.3°F1.8°C 28.2°F-2.1°C 75% 4.5 mph WNW7.2 kmh WNW 4.1 mph6.6 kmh 29.85 in1010.8 mb 0.00 in0.0 mm 0.00 in/hr0.0 mm/hr 0.00 in0.0 mm
11:50 PM 35.0°F1.7°C 28.2°F-2.1°C 76% 4.2 mph WSW6.8 kmh WSW 7.1 mph11.4 kmh 29.86 in1011.2 mb 0.00 in0.0 mm 0.00 in/hr0.0 mm/hr 0.00 in0.0 mm